sensor_id;sensor_type;location;lat;lon;timestamp;P1;durP1;ratioP1;P2;durP2;ratioP2
7116;SDS011;3600;48.568;7.870;2023-06-14T00:01:56;4.28;;;3.90;;
7116;SDS011;3600;48.568;7.870;2023-06-14T00:04:23;4.60;;;3.92;;
7116;SDS011;3600;48.568;7.870;2023-06-14T00:06:51;8.68;;;3.92;;
7116;SDS011;3600;48.568;7.870;2023-06-14T00:09:18;4.72;;;4.30;;
7116;SDS011;3600;48.568;7.870;2023-06-14T00:11:45;7.47;;;4.07;;
7116;SDS011;3600;48.568;7.870;2023-06-14T00:14:12;4.30;;;3.90;;
7116;SDS011;3600;48.568;7.870;2023-06-14T00:16:39;6.75;;;4.32;;
7116;SDS011;3600;48.568;7.870;2023-06-14T00:19:09;6.47;;;4.07;;
7116;SDS011;3600;48.568;7.870;2023-06-14T00:21:37;4.05;;;3.75;;
7116;SDS011;3600;48.568;7.870;2023-06-14T00:24:04;4.47;;;3.95;;
7116;SDS011;3600;48.568;7.870;2023-06-14T00:26:31;4.35;;;3.92;;
7116;SDS011;3600;48.568;7.870;2023-06-14T00:28:58;5.43;;;4.35;;
7116;SDS011;3600;48.568;7.870;2023-06-14T00:31:25;4.93;;;4.30;;
7116;SDS011;3600;48.568;7.870;2023-06-14T00:33:52;5.00;;;4.15;;
7116;SDS011;3600;48.568;7.870;2023-06-14T00:36:19;4.32;;;3.80;;
7116;SDS011;3600;48.568;7.870;2023-06-14T00:38:46;4.00;;;3.70;;
7116;SDS011;3600;48.568;7.870;2023-06-14T00:41:13;4.90;;;4.03;;
7116;SDS011;3600;48.568;7.870;2023-06-14T00:43:40;4.47;;;4.07;;
7116;SDS011;3600;48.568;7.870;2023-06-14T00:46:06;4.85;;;4.35;;
7116;SDS011;3600;48.568;7.870;2023-06-14T00:48:34;5.15;;;4.50;;
7116;SDS011;3600;48.568;7.870;2023-06-14T00:51:02;4.53;;;4.10;;
7116;SDS011;3600;48.568;7.870;2023-06-14T00:53:30;4.35;;;3.95;;
7116;SDS011;3600;48.568;7.870;2023-06-14T00:56:00;6.85;;;4.00;;
7116;SDS011;3600;48.568;7.870;2023-06-14T00:58:27;4.60;;;4.20;;
7116;SDS011;3600;48.568;7.870;2023-06-14T01:00:54;6.43;;;4.20;;
7116;SDS011;3600;48.568;7.870;2023-06-14T01:03:22;7.22;;;4.13;;
7116;SDS011;3600;48.568;7.870;2023-06-14T01:05:51;6.40;;;4.13;;
7116;SDS011;3600;48.568;7.870;2023-06-14T01:08:31;4.43;;;4.03;;
7116;SDS011;3600;48.568;7.870;2023-06-14T01:11:26;4.65;;;4.25;;
7116;SDS011;3600;48.568;7.870;2023-06-14T01:13:58;5.45;;;3.47;;
7116;SDS011;3600;48.568;7.870;2023-06-14T01:16:28;4.30;;;3.90;;
7116;SDS011;3600;48.568;7.870;2023-06-14T01:19:00;8.18;;;4.20;;
7116;SDS011;3600;48.568;7.870;2023-06-14T01:21:28;4.72;;;4.25;;
7116;SDS011;3600;48.568;7.870;2023-06-14T01:23:56;4.35;;;3.95;;
7116;SDS011;3600;48.568;7.870;2023-06-14T01:26:24;5.22;;;4.25;;
7116;SDS011;3600;48.568;7.870;2023-06-14T01:28:52;5.63;;;4.20;;
7116;SDS011;3600;48.568;7.870;2023-06-14T01:31:25;5.13;;;4.38;;
7116;SDS011;3600;48.568;7.870;2023-06-14T01:33:53;5.80;;;4.60;;
7116;SDS011;3600;48.568;7.870;2023-06-14T01:36:21;4.80;;;4.40;;
7116;SDS011;3600;48.568;7.870;2023-06-14T01:38:50;4.85;;;4.03;;
7116;SDS011;3600;48.568;7.870;2023-06-14T01:41:18;6.28;;;4.22;;
7116;SDS011;3600;48.568;7.870;2023-06-14T01:43:47;4.63;;;4.22;;
7116;SDS011;3600;48.568;7.870;2023-06-14T01:46:16;5.72;;;4.40;;
7116;SDS011;3600;48.568;7.870;2023-06-14T01:48:43;5.93;;;4.13;;
7116;SDS011;3600;48.568;7.870;2023-06-14T01:51:10;4.85;;;4.28;;
7116;SDS011;3600;48.568;7.870;2023-06-14T01:53:37;5.25;;;4.05;;
7116;SDS011;3600;48.568;7.870;2023-06-14T01:56:04;5.47;;;4.93;;
7116;SDS011;3600;48.568;7.870;2023-06-14T01:58:31;5.03;;;4.47;;
7116;SDS011;3600;48.568;7.870;2023-06-14T02:00:59;4.75;;;4.22;;
7116;SDS011;3600;48.568;7.870;2023-06-14T02:03:29;7.10;;;4.30;;
7116;SDS011;3600;48.568;7.870;2023-06-14T02:05:56;5.38;;;4.43;;
7116;SDS011;3600;48.568;7.870;2023-06-14T02:08:23;5.85;;;4.57;;
7116;SDS011;3600;48.568;7.870;2023-06-14T02:10:51;7.10;;;4.40;;
7116;SDS011;3600;48.568;7.870;2023-06-14T02:13:17;5.07;;;4.57;;
7116;SDS011;3600;48.568;7.870;2023-06-14T02:15:44;4.88;;;4.47;;
7116;SDS011;3600;48.568;7.870;2023-06-14T02:18:12;6.03;;;4.80;;
7116;SDS011;3600;48.568;7.870;2023-06-14T02:20:39;5.10;;;4.65;;
7116;SDS011;3600;48.568;7.870;2023-06-14T02:23:06;7.95;;;4.32;;
7116;SDS011;3600;48.568;7.870;2023-06-14T02:25:34;5.53;;;5.05;;
7116;SDS011;3600;48.568;7.870;2023-06-14T02:28:01;5.63;;;5.03;;
7116;SDS011;3600;48.568;7.870;2023-06-14T02:30:36;5.85;;;4.57;;
7116;SDS011;3600;48.568;7.870;2023-06-14T02:33:06;4.95;;;4.55;;
7116;SDS011;3600;48.568;7.870;2023-06-14T02:35:33;7.28;;;5.13;;
7116;SDS011;3600;48.568;7.870;2023-06-14T02:38:00;5.93;;;5.40;;
7116;SDS011;3600;48.568;7.870;2023-06-14T02:40:27;6.05;;;5.03;;
7116;SDS011;3600;48.568;7.870;2023-06-14T02:42:54;6.65;;;5.20;;
7116;SDS011;3600;48.568;7.870;2023-06-14T02:45:21;5.93;;;5.28;;
7116;SDS011;3600;48.568;7.870;2023-06-14T02:47:47;7.32;;;5.45;;
7116;SDS011;3600;48.568;7.870;2023-06-14T02:50:14;9.68;;;6.10;;
7116;SDS011;3600;48.568;7.870;2023-06-14T02:52:42;5.85;;;5.18;;
7116;SDS011;3600;48.568;7.870;2023-06-14T02:55:11;5.47;;;4.78;;
7116;SDS011;3600;48.568;7.870;2023-06-14T02:57:38;6.40;;;5.57;;
7116;SDS011;3600;48.568;7.870;2023-06-14T03:00:13;7.20;;;5.70;;
7116;SDS011;3600;48.568;7.870;2023-06-14T03:03:28;5.22;;;4.82;;
7116;SDS011;3600;48.568;7.870;2023-06-14T03:06:27;5.60;;;5.10;;
7116;SDS011;3600;48.568;7.870;2023-06-14T03:09:13;6.00;;;5.43;;
7116;SDS011;3600;48.568;7.870;2023-06-14T03:12:00;8.05;;;4.78;;
7116;SDS011;3600;48.568;7.870;2023-06-14T03:14:43;6.20;;;5.47;;
7116;SDS011;3600;48.568;7.870;2023-06-14T03:17:13;6.13;;;5.53;;
7116;SDS011;3600;48.568;7.870;2023-06-14T03:19:40;8.23;;;6.00;;
7116;SDS011;3600;48.568;7.870;2023-06-14T03:22:07;6.10;;;5.55;;
7116;SDS011;3600;48.568;7.870;2023-06-14T03:24:34;5.53;;;5.03;;
7116;SDS011;3600;48.568;7.870;2023-06-14T03:27:03;5.65;;;5.15;;
7116;SDS011;3600;48.568;7.870;2023-06-14T03:29:30;8.13;;;4.97;;
7116;SDS011;3600;48.568;7.870;2023-06-14T03:32:06;5.82;;;5.07;;
7116;SDS011;3600;48.568;7.870;2023-06-14T03:35:04;6.35;;;5.38;;
7116;SDS011;3600;48.568;7.870;2023-06-14T03:38:10;7.00;;;5.20;;
7116;SDS011;3600;48.568;7.870;2023-06-14T03:41:04;5.88;;;5.28;;
7116;SDS011;3600;48.568;7.870;2023-06-14T03:44:05;5.28;;;4.88;;
7116;SDS011;3600;48.568;7.870;2023-06-14T03:46:46;5.53;;;4.97;;
7116;SDS011;3600;48.568;7.870;2023-06-14T03:49:39;6.45;;;5.15;;
7116;SDS011;3600;48.568;7.870;2023-06-14T03:52:26;5.40;;;4.90;;
7116;SDS011;3600;48.568;7.870;2023-06-14T03:54:53;5.22;;;4.70;;
7116;SDS011;3600;48.568;7.870;2023-06-14T03:57:40;5.18;;;4.68;;
7116;SDS011;3600;48.568;7.870;2023-06-14T04:00:08;4.07;;;3.67;;
7116;SDS011;3600;48.568;7.870;2023-06-14T04:02:36;5.13;;;4.60;;
7116;SDS011;3600;48.568;7.870;2023-06-14T04:05:04;5.40;;;4.80;;
7116;SDS011;3600;48.568;7.870;2023-06-14T04:07:35;5.53;;;4.45;;
7116;SDS011;3600;48.568;7.870;2023-06-14T04:10:11;5.65;;;4.75;;
7116;SDS011;3600;48.568;7.870;2023-06-14T04:12:39;6.25;;;4.72;;
7116;SDS011;3600;48.568;7.870;2023-06-14T04:15:09;6.80;;;4.80;;
7116;SDS011;3600;48.568;7.870;2023-06-14T04:17:46;6.28;;;4.35;;
7116;SDS011;3600;48.568;7.870;2023-06-14T04:20:13;6.38;;;4.90;;
7116;SDS011;3600;48.568;7.870;2023-06-14T04:22:40;5.32;;;4.78;;
7116;SDS011;3600;48.568;7.870;2023-06-14T04:25:09;6.10;;;5.45;;
7116;SDS011;3600;48.568;7.870;2023-06-14T04:27:38;6.38;;;4.85;;
7116;SDS011;3600;48.568;7.870;2023-06-14T04:30:05;5.70;;;4.40;;
7116;SDS011;3600;48.568;7.870;2023-06-14T04:32:41;7.22;;;5.32;;
7116;SDS011;3600;48.568;7.870;2023-06-14T04:35:09;5.80;;;5.25;;
7116;SDS011;3600;48.568;7.870;2023-06-14T04:37:36;6.70;;;4.35;;
7116;SDS011;3600;48.568;7.870;2023-06-14T04:40:08;5.38;;;4.88;;
7116;SDS011;3600;48.568;7.870;2023-06-14T04:42:38;5.25;;;4.75;;
7116;SDS011;3600;48.568;7.870;2023-06-14T04:45:07;5.07;;;4.65;;
7116;SDS011;3600;48.568;7.870;2023-06-14T04:47:37;5.43;;;4.93;;
7116;SDS011;3600;48.568;7.870;2023-06-14T04:50:04;5.75;;;5.20;;
7116;SDS011;3600;48.568;7.870;2023-06-14T04:52:31;5.82;;;4.80;;
7116;SDS011;3600;48.568;7.870;2023-06-14T04:54:59;6.13;;;4.55;;
7116;SDS011;3600;48.568;7.870;2023-06-14T04:57:26;5.63;;;4.68;;
7116;SDS011;3600;48.568;7.870;2023-06-14T04:59:53;6.72;;;4.35;;
7116;SDS011;3600;48.568;7.870;2023-06-14T05:02:22;5.22;;;4.72;;
7116;SDS011;3600;48.568;7.870;2023-06-14T05:04:50;5.60;;;5.05;;
7116;SDS011;3600;48.568;7.870;2023-06-14T05:07:17;4.93;;;4.53;;
7116;SDS011;3600;48.568;7.870;2023-06-14T05:09:44;5.00;;;4.50;;
7116;SDS011;3600;48.568;7.870;2023-06-14T05:12:11;5.88;;;5.10;;
7116;SDS011;3600;48.568;7.870;2023-06-14T05:14:38;5.13;;;4.57;;
7116;SDS011;3600;48.568;7.870;2023-06-14T05:17:05;7.55;;;4.68;;
7116;SDS011;3600;48.568;7.870;2023-06-14T05:19:32;6.03;;;4.47;;
7116;SDS011;3600;48.568;7.870;2023-06-14T05:21:59;4.70;;;4.30;;
7116;SDS011;3600;48.568;7.870;2023-06-14T05:24:26;5.03;;;4.63;;
7116;SDS011;3600;48.568;7.870;2023-06-14T05:26:55;5.63;;;5.15;;
7116;SDS011;3600;48.568;7.870;2023-06-14T05:29:22;7.30;;;5.13;;
7116;SDS011;3600;48.568;7.870;2023-06-14T05:31:49;5.28;;;4.78;;
7116;SDS011;3600;48.568;7.870;2023-06-14T05:34:16;6.10;;;4.65;;
7116;SDS011;3600;48.568;7.870;2023-06-14T05:36:43;6.15;;;4.97;;
7116;SDS011;3600;48.568;7.870;2023-06-14T05:39:10;5.28;;;4.63;;
7116;SDS011;3600;48.568;7.870;2023-06-14T05:41:37;4.75;;;4.35;;
7116;SDS011;3600;48.568;7.870;2023-06-14T05:44:04;5.45;;;5.00;;
7116;SDS011;3600;48.568;7.870;2023-06-14T05:46:31;5.30;;;4.80;;
7116;SDS011;3600;48.568;7.870;2023-06-14T05:48:57;5.28;;;4.78;;
7116;SDS011;3600;48.568;7.870;2023-06-14T05:51:24;5.55;;;5.05;;
7116;SDS011;3600;48.568;7.870;2023-06-14T05:53:51;5.43;;;4.82;;
7116;SDS011;3600;48.568;7.870;2023-06-14T05:56:19;5.22;;;4.78;;
7116;SDS011;3600;48.568;7.870;2023-06-14T05:58:46;5.68;;;5.07;;
7116;SDS011;3600;48.568;7.870;2023-06-14T06:01:13;5.53;;;5.03;;
7116;SDS011;3600;48.568;7.870;2023-06-14T06:03:41;5.50;;;4.75;;
7116;SDS011;3600;48.568;7.870;2023-06-14T06:06:12;5.78;;;4.72;;
7116;SDS011;3600;48.568;7.870;2023-06-14T06:08:40;6.80;;;4.70;;
7116;SDS011;3600;48.568;7.870;2023-06-14T06:11:07;6.68;;;4.40;;
7116;SDS011;3600;48.568;7.870;2023-06-14T06:13:34;5.38;;;4.95;;
7116;SDS011;3600;48.568;7.870;2023-06-14T06:16:02;4.80;;;4.40;;
7116;SDS011;3600;48.568;7.870;2023-06-14T06:18:29;5.18;;;4.68;;
7116;SDS011;3600;48.568;7.870;2023-06-14T06:20:56;4.85;;;4.45;;
7116;SDS011;3600;48.568;7.870;2023-06-14T06:23:23;4.68;;;4.28;;
7116;SDS011;3600;48.568;7.870;2023-06-14T06:25:51;6.93;;;4.63;;
7116;SDS011;3600;48.568;7.870;2023-06-14T06:28:18;4.32;;;3.90;;
7116;SDS011;3600;48.568;7.870;2023-06-14T06:30:45;5.18;;;4.40;;
7116;SDS011;3600;48.568;7.870;2023-06-14T06:33:15;6.95;;;4.60;;
7116;SDS011;3600;48.568;7.870;2023-06-14T06:35:56;5.55;;;4.50;;
7116;SDS011;3600;48.568;7.870;2023-06-14T06:38:23;4.80;;;4.40;;
7116;SDS011;3600;48.568;7.870;2023-06-14T06:41:06;5.55;;;4.40;;
7116;SDS011;3600;48.568;7.870;2023-06-14T06:43:33;5.03;;;4.13;;
7116;SDS011;3600;48.568;7.870;2023-06-14T06:46:00;5.68;;;5.10;;
7116;SDS011;3600;48.568;7.870;2023-06-14T06:48:27;4.85;;;4.32;;
7116;SDS011;3600;48.568;7.870;2023-06-14T06:50:55;8.73;;;4.20;;
7116;SDS011;3600;48.568;7.870;2023-06-14T06:53:22;4.93;;;4.53;;
7116;SDS011;3600;48.568;7.870;2023-06-14T06:56:05;4.63;;;4.15;;
7116;SDS011;3600;48.568;7.870;2023-06-14T06:58:32;9.13;;;4.30;;
7116;SDS011;3600;48.568;7.870;2023-06-14T07:01:02;5.72;;;4.07;;
7116;SDS011;3600;48.568;7.870;2023-06-14T07:03:32;4.97;;;4.47;;
7116;SDS011;3600;48.568;7.870;2023-06-14T07:05:59;4.38;;;3.97;;
7116;SDS011;3600;48.568;7.870;2023-06-14T07:08:26;7.50;;;5.30;;
7116;SDS011;3600;48.568;7.870;2023-06-14T07:10:53;6.43;;;4.35;;
7116;SDS011;3600;48.568;7.870;2023-06-14T07:13:20;5.03;;;4.35;;
7116;SDS011;3600;48.568;7.870;2023-06-14T07:15:47;7.50;;;4.28;;
7116;SDS011;3600;48.568;7.870;2023-06-14T07:18:14;7.32;;;4.20;;
7116;SDS011;3600;48.568;7.870;2023-06-14T07:20:42;7.68;;;4.40;;
7116;SDS011;3600;48.568;7.870;2023-06-14T07:23:09;7.75;;;4.78;;
7116;SDS011;3600;48.568;7.870;2023-06-14T07:25:37;4.95;;;4.20;;
7116;SDS011;3600;48.568;7.870;2023-06-14T07:28:04;5.65;;;4.20;;
7116;SDS011;3600;48.568;7.870;2023-06-14T07:30:31;5.28;;;4.72;;
7116;SDS011;3600;48.568;7.870;2023-06-14T07:32:57;8.23;;;4.97;;
7116;SDS011;3600;48.568;7.870;2023-06-14T07:35:24;6.68;;;4.85;;
7116;SDS011;3600;48.568;7.870;2023-06-14T07:37:51;5.82;;;4.85;;
7116;SDS011;3600;48.568;7.870;2023-06-14T07:40:18;6.97;;;3.97;;
7116;SDS011;3600;48.568;7.870;2023-06-14T07:42:45;5.25;;;4.75;;
7116;SDS011;3600;48.568;7.870;2023-06-14T07:45:15;4.80;;;4.30;;
7116;SDS011;3600;48.568;7.870;2023-06-14T07:47:43;7.80;;;4.80;;
7116;SDS011;3600;48.568;7.870;2023-06-14T07:50:10;6.32;;;4.68;;
7116;SDS011;3600;48.568;7.870;2023-06-14T07:52:39;4.47;;;3.85;;
7116;SDS011;3600;48.568;7.870;2023-06-14T07:55:06;4.55;;;4.15;;
7116;SDS011;3600;48.568;7.870;2023-06-14T07:57:33;5.18;;;4.68;;
7116;SDS011;3600;48.568;7.870;2023-06-14T08:00:00;5.32;;;4.20;;
7116;SDS011;3600;48.568;7.870;2023-06-14T08:02:27;4.63;;;4.22;;
7116;SDS011;3600;48.568;7.870;2023-06-14T08:05:01;6.40;;;4.22;;
7116;SDS011;3600;48.568;7.870;2023-06-14T08:07:28;5.57;;;4.28;;
7116;SDS011;3600;48.568;7.870;2023-06-14T08:09:55;5.18;;;4.22;;
7116;SDS011;3600;48.568;7.870;2023-06-14T08:12:22;6.40;;;4.60;;
7116;SDS011;3600;48.568;7.870;2023-06-14T08:14:49;5.25;;;4.75;;
7116;SDS011;3600;48.568;7.870;2023-06-14T08:17:34;5.13;;;4.25;;
7116;SDS011;3600;48.568;7.870;2023-06-14T08:20:01;6.15;;;3.67;;
7116;SDS011;3600;48.568;7.870;2023-06-14T08:22:30;5.93;;;4.38;;
7116;SDS011;3600;48.568;7.870;2023-06-14T08:25:00;4.40;;;4.00;;
7116;SDS011;3600;48.568;7.870;2023-06-14T08:27:27;6.72;;;3.88;;
7116;SDS011;3600;48.568;7.870;2023-06-14T08:29:56;5.88;;;4.20;;
7116;SDS011;3600;48.568;7.870;2023-06-14T08:32:23;6.25;;;4.45;;
7116;SDS011;3600;48.568;7.870;2023-06-14T08:34:50;4.43;;;4.03;;
7116;SDS011;3600;48.568;7.870;2023-06-14T08:37:30;5.75;;;4.65;;
7116;SDS011;3600;48.568;7.870;2023-06-14T08:39:57;4.97;;;4.25;;
7116;SDS011;3600;48.568;7.870;2023-06-14T08:42:23;4.72;;;4.22;;
7116;SDS011;3600;48.568;7.870;2023-06-14T08:44:57;4.57;;;4.18;;
7116;SDS011;3600;48.568;7.870;2023-06-14T08:47:25;6.30;;;4.28;;
7116;SDS011;3600;48.568;7.870;2023-06-14T08:49:55;4.38;;;4.07;;
7116;SDS011;3600;48.568;7.870;2023-06-14T08:52:24;6.55;;;3.88;;
7116;SDS011;3600;48.568;7.870;2023-06-14T08:54:56;5.72;;;4.05;;
7116;SDS011;3600;48.568;7.870;2023-06-14T08:57:23;4.78;;;4.28;;
7116;SDS011;3600;48.568;7.870;2023-06-14T08:59:51;4.90;;;4.18;;
7116;SDS011;3600;48.568;7.870;2023-06-14T09:02:20;4.68;;;4.22;;
7116;SDS011;3600;48.568;7.870;2023-06-14T09:04:48;8.15;;;4.50;;
7116;SDS011;3600;48.568;7.870;2023-06-14T09:07:18;5.93;;;4.57;;
7116;SDS011;3600;48.568;7.870;2023-06-14T09:09:45;6.15;;;4.47;;
7116;SDS011;3600;48.568;7.870;2023-06-14T09:12:37;6.25;;;4.15;;
7116;SDS011;3600;48.568;7.870;2023-06-14T09:15:28;5.47;;;4.18;;
7116;SDS011;3600;48.568;7.870;2023-06-14T09:18:15;4.30;;;3.90;;
7116;SDS011;3600;48.568;7.870;2023-06-14T09:20:55;5.75;;;4.65;;
7116;SDS011;3600;48.568;7.870;2023-06-14T09:23:48;5.07;;;4.20;;
7116;SDS011;3600;48.568;7.870;2023-06-14T09:26:22;7.88;;;4.65;;
7116;SDS011;3600;48.568;7.870;2023-06-14T09:29:16;4.63;;;4.22;;
7116;SDS011;3600;48.568;7.870;2023-06-14T09:31:50;4.72;;;4.40;;
7116;SDS011;3600;48.568;7.870;2023-06-14T09:34:22;4.57;;;4.18;;
7116;SDS011;3600;48.568;7.870;2023-06-14T09:37:31;9.15;;;5.22;;
7116;SDS011;3600;48.568;7.870;2023-06-14T09:40:04;9.30;;;5.15;;
7116;SDS011;3600;48.568;7.870;2023-06-14T09:43:15;4.30;;;3.90;;
7116;SDS011;3600;48.568;7.870;2023-06-14T09:46:05;5.03;;;4.55;;
7116;SDS011;3600;48.568;7.870;2023-06-14T09:48:51;4.43;;;4.03;;
7116;SDS011;3600;48.568;7.870;2023-06-14T09:51:25;8.15;;;4.20;;
7116;SDS011;3600;48.568;7.870;2023-06-14T09:53:55;5.07;;;4.20;;
7116;SDS011;3600;48.568;7.870;2023-06-14T09:56:41;5.43;;;4.10;;
7116;SDS011;3600;48.568;7.870;2023-06-14T09:59:10;8.93;;;4.07;;
7116;SDS011;3600;48.568;7.870;2023-06-14T10:01:46;4.97;;;4.50;;
7116;SDS011;3600;48.568;7.870;2023-06-14T10:04:20;5.63;;;3.60;;
7116;SDS011;3600;48.568;7.870;2023-06-14T10:07:00;6.07;;;3.67;;
7116;SDS011;3600;48.568;7.870;2023-06-14T10:09:42;4.40;;;3.85;;
7116;SDS011;3600;48.568;7.870;2023-06-14T10:12:18;5.38;;;3.58;;
7116;SDS011;3600;48.568;7.870;2023-06-14T10:15:07;4.68;;;4.28;;
7116;SDS011;3600;48.568;7.870;2023-06-14T10:21:41;4.82;;;3.95;;
7116;SDS011;3600;48.568;7.870;2023-06-14T10:29:22;3.92;;;3.60;;
7116;SDS011;3600;48.568;7.870;2023-06-14T10:32:45;4.93;;;3.95;;
7116;SDS011;3600;48.568;7.870;2023-06-14T10:35:41;6.55;;;3.90;;
7116;SDS011;3600;48.568;7.870;2023-06-14T10:38:14;4.20;;;3.60;;
7116;SDS011;3600;48.568;7.870;2023-06-14T10:41:25;5.03;;;3.63;;
7116;SDS011;3600;48.568;7.870;2023-06-14T10:47:24;5.53;;;3.78;;
7116;SDS011;3600;48.568;7.870;2023-06-14T10:50:29;4.15;;;3.75;;
7116;SDS011;3600;48.568;7.870;2023-06-14T10:53:42;5.88;;;3.63;;
7116;SDS011;3600;48.568;7.870;2023-06-14T10:56:29;7.50;;;3.22;;
7116;SDS011;3600;48.568;7.870;2023-06-14T10:59:41;4.13;;;3.55;;
7116;SDS011;3600;48.568;7.870;2023-06-14T11:05:58;5.03;;;3.63;;
7116;SDS011;3600;48.568;7.870;2023-06-14T11:12:36;3.75;;;3.45;;
7116;SDS011;3600;48.568;7.870;2023-06-14T11:15:54;4.95;;;3.60;;
7116;SDS011;3600;48.568;7.870;2023-06-14T11:25:11;3.92;;;3.58;;
7116;SDS011;3600;48.568;7.870;2023-06-14T11:31:50;6.13;;;3.70;;
7116;SDS011;3600;48.568;7.870;2023-06-14T11:35:02;6.78;;;3.72;;
7116;SDS011;3600;48.568;7.870;2023-06-14T11:38:11;6.03;;;4.03;;
7116;SDS011;3600;48.568;7.870;2023-06-14T11:41:24;4.30;;;3.90;;
7116;SDS011;3600;48.568;7.870;2023-06-14T11:44:17;5.07;;;3.95;;
7116;SDS011;3600;48.568;7.870;2023-06-14T11:47:09;6.05;;;3.38;;
7116;SDS011;3600;48.568;7.870;2023-06-14T11:49:46;4.65;;;3.20;;
7116;SDS011;3600;48.568;7.870;2023-06-14T11:55:39;3.72;;;3.25;;
7116;SDS011;3600;48.568;7.870;2023-06-14T12:02:00;5.50;;;3.22;;
7116;SDS011;3600;48.568;7.870;2023-06-14T12:08:38;5.65;;;3.30;;
7116;SDS011;3600;48.568;7.870;2023-06-14T12:11:34;9.00;;;3.40;;
7116;SDS011;3600;48.568;7.870;2023-06-14T12:14:47;4.20;;;3.72;;
7116;SDS011;3600;48.568;7.870;2023-06-14T12:17:43;5.82;;;3.28;;
7116;SDS011;3600;48.568;7.870;2023-06-14T12:21:06;4.47;;;3.33;;
7116;SDS011;3600;48.568;7.870;2023-06-14T12:24:33;3.88;;;3.20;;
7116;SDS011;3600;48.568;7.870;2023-06-14T12:31:09;2.95;;;2.75;;
7116;SDS011;3600;48.568;7.870;2023-06-14T12:34:27;4.50;;;3.50;;
7116;SDS011;3600;48.568;7.870;2023-06-14T12:37:32;4.80;;;3.13;;
7116;SDS011;3600;48.568;7.870;2023-06-14T12:40:08;6.75;;;3.63;;
7116;SDS011;3600;48.568;7.870;2023-06-14T12:42:50;5.75;;;3.38;;
7116;SDS011;3600;48.568;7.870;2023-06-14T12:45:46;4.90;;;3.70;;
7116;SDS011;3600;48.568;7.870;2023-06-14T12:48:51;3.85;;;3.10;;
7116;SDS011;3600;48.568;7.870;2023-06-14T12:52:12;3.75;;;3.45;;
7116;SDS011;3600;48.568;7.870;2023-06-14T12:58:51;5.07;;;3.63;;
7116;SDS011;3600;48.568;7.870;2023-06-14T13:01:43;4.85;;;3.78;;
7116;SDS011;3600;48.568;7.870;2023-06-14T13:04:34;5.45;;;3.92;;
7116;SDS011;3600;48.568;7.870;2023-06-14T13:07:32;3.97;;;3.58;;
7116;SDS011;3600;48.568;7.870;2023-06-14T13:10:16;6.68;;;3.88;;
7116;SDS011;3600;48.568;7.870;2023-06-14T13:16:17;4.75;;;3.53;;
7116;SDS011;3600;48.568;7.870;2023-06-14T13:19:04;4.63;;;3.53;;
7116;SDS011;3600;48.568;7.870;2023-06-14T13:21:43;5.15;;;3.50;;
7116;SDS011;3600;48.568;7.870;2023-06-14T13:24:22;3.90;;;3.60;;
7116;SDS011;3600;48.568;7.870;2023-06-14T13:27:11;7.22;;;3.20;;
7116;SDS011;3600;48.568;7.870;2023-06-14T13:30:09;5.65;;;3.60;;
7116;SDS011;3600;48.568;7.870;2023-06-14T13:33:03;6.57;;;3.60;;
7116;SDS011;3600;48.568;7.870;2023-06-14T13:35:44;3.80;;;3.50;;
7116;SDS011;3600;48.568;7.870;2023-06-14T13:41:45;6.78;;;3.20;;
7116;SDS011;3600;48.568;7.870;2023-06-14T13:47:47;3.83;;;3.42;;
7116;SDS011;3600;48.568;7.870;2023-06-14T13:50:54;4.55;;;3.70;;
7116;SDS011;3600;48.568;7.870;2023-06-14T13:53:43;3.67;;;3.10;;
7116;SDS011;3600;48.568;7.870;2023-06-14T13:56:28;4.55;;;3.72;;
7116;SDS011;3600;48.568;7.870;2023-06-14T13:59:41;4.57;;;3.17;;
7116;SDS011;3600;48.568;7.870;2023-06-14T14:02:55;3.95;;;3.45;;
7116;SDS011;3600;48.568;7.870;2023-06-14T14:05:36;4.07;;;3.70;;
7116;SDS011;3600;48.568;7.870;2023-06-14T14:08:43;5.82;;;3.72;;
7116;SDS011;3600;48.568;7.870;2023-06-14T14:11:18;5.30;;;3.35;;
7116;SDS011;3600;48.568;7.870;2023-06-14T14:14:18;5.55;;;3.28;;
7116;SDS011;3600;48.568;7.870;2023-06-14T14:17:02;5.18;;;3.80;;
7116;SDS011;3600;48.568;7.870;2023-06-14T14:19:29;4.07;;;3.75;;
7116;SDS011;3600;48.568;7.870;2023-06-14T14:21:59;4.22;;;3.83;;
7116;SDS011;3600;48.568;7.870;2023-06-14T14:24:38;5.10;;;3.42;;
7116;SDS011;3600;48.568;7.870;2023-06-14T14:27:16;4.15;;;3.60;;
7116;SDS011;3600;48.568;7.870;2023-06-14T14:29:47;7.82;;;3.60;;
7116;SDS011;3600;48.568;7.870;2023-06-14T14:32:17;4.72;;;3.65;;
7116;SDS011;3600;48.568;7.870;2023-06-14T14:34:45;4.68;;;3.38;;
7116;SDS011;3600;48.568;7.870;2023-06-14T14:37:16;8.07;;;3.65;;
7116;SDS011;3600;48.568;7.870;2023-06-14T14:39:44;4.30;;;3.58;;
7116;SDS011;3600;48.568;7.870;2023-06-14T14:42:12;6.53;;;3.17;;
7116;SDS011;3600;48.568;7.870;2023-06-14T14:44:42;6.65;;;3.38;;
7116;SDS011;3600;48.568;7.870;2023-06-14T14:47:12;4.78;;;3.83;;
7116;SDS011;3600;48.568;7.870;2023-06-14T14:49:42;4.03;;;3.50;;
7116;SDS011;3600;48.568;7.870;2023-06-14T14:52:12;4.82;;;3.50;;
7116;SDS011;3600;48.568;7.870;2023-06-14T14:54:50;3.80;;;3.17;;
7116;SDS011;3600;48.568;7.870;2023-06-14T14:57:31;4.38;;;3.58;;
7116;SDS011;3600;48.568;7.870;2023-06-14T15:00:04;4.85;;;3.38;;
7116;SDS011;3600;48.568;7.870;2023-06-14T15:07:10;9.65;;;3.50;;
7116;SDS011;3600;48.568;7.870;2023-06-14T15:11:05;3.85;;;3.55;;
7116;SDS011;3600;48.568;7.870;2023-06-14T15:14:05;4.88;;;3.65;;
7116;SDS011;3600;48.568;7.870;2023-06-14T15:17:21;4.43;;;3.35;;
7116;SDS011;3600;48.568;7.870;2023-06-14T15:20:05;4.95;;;3.50;;
7116;SDS011;3600;48.568;7.870;2023-06-14T15:22:49;7.88;;;3.60;;
7116;SDS011;3600;48.568;7.870;2023-06-14T15:25:45;4.80;;;3.30;;
7116;SDS011;3600;48.568;7.870;2023-06-14T15:28:31;3.60;;;3.00;;
7116;SDS011;3600;48.568;7.870;2023-06-14T15:31:10;5.95;;;3.58;;
7116;SDS011;3600;48.568;7.870;2023-06-14T15:34:05;3.53;;;3.20;;
7116;SDS011;3600;48.568;7.870;2023-06-14T15:36:57;4.90;;;3.45;;
7116;SDS011;3600;48.568;7.870;2023-06-14T15:39:53;3.33;;;2.92;;
7116;SDS011;3600;48.568;7.870;2023-06-14T15:42:24;3.50;;;3.20;;
7116;SDS011;3600;48.568;7.870;2023-06-14T15:45:24;4.20;;;3.67;;
7116;SDS011;3600;48.568;7.870;2023-06-14T15:51:05;5.82;;;3.40;;
7116;SDS011;3600;48.568;7.870;2023-06-14T15:54:06;3.55;;;3.25;;
7116;SDS011;3600;48.568;7.870;2023-06-14T15:57:16;4.47;;;3.47;;
7116;SDS011;3600;48.568;7.870;2023-06-14T16:00:14;4.15;;;3.75;;
7116;SDS011;3600;48.568;7.870;2023-06-14T16:03:32;4.05;;;3.25;;
7116;SDS011;3600;48.568;7.870;2023-06-14T16:06:44;4.03;;;3.20;;
7116;SDS011;3600;48.568;7.870;2023-06-14T16:10:07;5.38;;;3.78;;
7116;SDS011;3600;48.568;7.870;2023-06-14T16:12:47;3.83;;;3.40;;
7116;SDS011;3600;48.568;7.870;2023-06-14T16:15:27;5.13;;;3.42;;
7116;SDS011;3600;48.568;7.870;2023-06-14T16:18:15;4.75;;;3.33;;
7116;SDS011;3600;48.568;7.870;2023-06-14T16:21:30;3.47;;;3.17;;
7116;SDS011;3600;48.568;7.870;2023-06-14T16:24:10;4.97;;;3.78;;
7116;SDS011;3600;48.568;7.870;2023-06-14T16:27:10;3.90;;;3.60;;
7116;SDS011;3600;48.568;7.870;2023-06-14T16:30:17;3.88;;;3.63;;
7116;SDS011;3600;48.568;7.870;2023-06-14T16:32:57;6.55;;;3.90;;
7116;SDS011;3600;48.568;7.870;2023-06-14T16:35:48;4.07;;;3.67;;
7116;SDS011;3600;48.568;7.870;2023-06-14T16:39:02;4.10;;;3.30;;
7116;SDS011;3600;48.568;7.870;2023-06-14T16:41:57;4.22;;;3.47;;
7116;SDS011;3600;48.568;7.870;2023-06-14T16:44:42;4.25;;;3.92;;
7116;SDS011;3600;48.568;7.870;2023-06-14T16:47:30;3.80;;;3.47;;
7116;SDS011;3600;48.568;7.870;2023-06-14T16:50:13;5.40;;;3.65;;
7116;SDS011;3600;48.568;7.870;2023-06-14T16:59:29;3.40;;;3.10;;
7116;SDS011;3600;48.568;7.870;2023-06-14T17:02:13;3.90;;;3.50;;
7116;SDS011;3600;48.568;7.870;2023-06-14T17:05:06;4.13;;;3.70;;
7116;SDS011;3600;48.568;7.870;2023-06-14T17:11:05;3.83;;;3.42;;
7116;SDS011;3600;48.568;7.870;2023-06-14T17:13:54;5.18;;;3.75;;
7116;SDS011;3600;48.568;7.870;2023-06-14T17:17:00;3.60;;;3.30;;
7116;SDS011;3600;48.568;7.870;2023-06-14T17:19:49;5.88;;;3.45;;
7116;SDS011;3600;48.568;7.870;2023-06-14T17:22:50;6.82;;;3.85;;
7116;SDS011;3600;48.568;7.870;2023-06-14T17:25:56;3.20;;;3.00;;
7116;SDS011;3600;48.568;7.870;2023-06-14T17:31:37;4.32;;;3.53;;
7116;SDS011;3600;48.568;7.870;2023-06-14T17:34:24;5.03;;;3.00;;
7116;SDS011;3600;48.568;7.870;2023-06-14T17:37:28;3.95;;;3.40;;
7116;SDS011;3600;48.568;7.870;2023-06-14T17:40:49;3.88;;;3.58;;
7116;SDS011;3600;48.568;7.870;2023-06-14T17:43:56;7.15;;;3.28;;